Terminal Aerodrome Forecast
Issued by NWS Dallas/Fort Worth, TX

Home | Current Version | Previous Version | Text Only | Print | Product List | Glossary On
Versions: 1 2 3 4 5 6 7 8 9 10 11 12 13 14 15 16 17 18 19 20 21 22 23 24 25 26 27 28 29 30 31
628
FTUS44 KFWD 301458 AAA
TAFDFW
TAF AMD
KDFW 301458Z 3015/3118 29016KT P6SM FEW250
     FM302300 24009KT P6SM FEW250
     FM310100 VRB06KT P6SM FEW250
     FM310500 11006KT P6SM FEW250
     FM311500 17011KT P6SM FEW250
     FM311700 19016KT P6SM SCT250=

USA.gov is the U.S. government's official web portal to all federal, state and local government web resources and services.